Time;durP1;ratioP1;P1;durP2;ratioP2;P2;SDS_P1;SDS_P2;PMS_P1;PMS_P2;Temp;Humidity;BMP_temperature;BMP_pressure;BME280_temperature;BME280_humidity;BME280_pressure;Samples;Min_cycle;Max_cycle;Signal;HPM_P1;HPM_P2
2022/11/27 00:01:31;;;;;;;1.00;0.70;;;11.00;99.90;;;;;;5058173;28;20495;-76
2022/11/27 00:03:58;;;;;;;1.65;0.90;;;11.00;99.90;;;;;;5037912;28;20424;-77
2022/11/27 00:06:26;;;;;;;1.00;0.70;;;11.00;99.90;;;;;;5057816;28;20109;-76
2022/11/27 00:08:55;;;;;;;1.25;0.80;;;11.00;99.90;;;;;;5042495;28;20049;-76
2022/11/27 00:11:23;;;;;;;1.33;0.90;;;11.00;99.90;;;;;;5041936;28;20048;-77
2022/11/27 00:13:49;;;;;;;1.10;0.75;;;11.00;99.90;;;;;;5040854;28;20136;-76
2022/11/27 00:16:16;;;;;;;1.75;0.90;;;11.00;99.90;;;;;;5025427;28;20349;-76
2022/11/27 00:18:43;;;;;;;0.88;0.60;;;11.00;99.90;;;;;;5058256;28;20051;-76
2022/11/27 00:21:21;;;;;;;0.70;0.70;;;11.00;99.90;;;;;;5058662;28;20044;-76
2022/11/27 00:23:52;;;;;;;2.53;0.82;;;11.00;99.90;;;;;;5039057;28;20045;-76
2022/11/27 00:26:18;;;;;;;0.80;0.68;;;10.90;99.90;;;;;;5042525;28;20380;-77
2022/11/27 00:28:45;;;;;;;0.77;0.50;;;10.90;99.90;;;;;;5059038;28;20059;-77
2022/11/27 00:31:21;;;;;;;2.58;0.82;;;10.90;99.90;;;;;;5042473;28;20060;-76
2022/11/27 00:33:48;;;;;;;1.27;0.70;;;10.90;99.90;;;;;;5045777;28;20118;-77
2022/11/27 00:36:14;;;;;;;1.30;0.88;;;10.90;99.90;;;;;;5063129;28;20071;-76
2022/11/27 00:38:41;;;;;;;0.90;0.50;;;10.90;99.90;;;;;;5064182;28;20056;-76
2022/11/27 00:41:10;;;;;;;1.00;0.60;;;10.90;99.90;;;;;;5063694;28;20054;-76
2022/11/27 00:43:36;;;;;;;0.60;0.60;;;10.90;99.90;;;;;;5044209;28;20067;-76
2022/11/27 00:46:14;;;;;;;1.35;0.90;;;10.90;99.90;;;;;;5031901;28;20413;-76
2022/11/27 00:48:41;;;;;;;1.67;0.60;;;10.80;99.90;;;;;;5064176;28;20078;-76
2022/11/27 00:51:08;;;;;;;1.70;0.70;;;10.80;99.90;;;;;;5063796;28;20086;-76
2022/11/27 00:53:35;;;;;;;0.88;0.50;;;10.80;99.90;;;;;;5047276;28;20048;-76
2022/11/27 00:56:02;;;;;;;2.20;0.90;;;10.80;99.90;;;;;;5064020;28;20051;-76
2022/11/27 00:58:29;;;;;;;1.58;1.02;;;10.80;99.90;;;;;;5062628;28;20142;-76
2022/11/27 01:00:57;;;;;;;1.83;0.68;;;10.80;99.90;;;;;;5046436;28;20070;-76
2022/11/27 01:03:23;;;;;;;0.70;0.50;;;10.70;99.90;;;;;;5047006;28;20060;-76
2022/11/27 01:05:50;;;;;;;1.27;0.65;;;10.70;99.90;;;;;;5063505;28;20395;-76
2022/11/27 01:08:20;;;;;;;0.77;0.60;;;10.80;99.90;;;;;;5047015;28;20063;-76
2022/11/27 01:10:55;;;;;;;1.23;0.60;;;10.70;99.90;;;;;;5065385;28;20139;-76
2022/11/27 01:13:23;;;;;;;1.58;0.70;;;10.70;99.90;;;;;;5063065;28;20052;-76
2022/11/27 01:16:13;;;;;;;1.10;0.77;;;10.70;99.90;;;;;;5046450;28;20044;-76
2022/11/27 01:18:41;;;;;;;1.33;0.60;;;10.70;99.90;;;;;;5030512;28;20048;-76
2022/11/27 01:21:08;;;;;;;0.98;0.88;;;10.60;99.90;;;;;;5030137;28;20379;-76
2022/11/27 01:23:35;;;;;;;1.00;0.50;;;10.70;99.90;;;;;;5046938;28;20211;-76
2022/11/27 01:26:03;;;;;;;0.68;0.50;;;10.70;99.90;;;;;;5062851;28;20091;-76
2022/11/27 01:28:30;;;;;;;1.05;0.75;;;10.60;99.90;;;;;;5064548;28;20084;-76
2022/11/27 01:30:56;;;;;;;0.68;0.52;;;10.60;99.90;;;;;;5062853;28;20080;-76
2022/11/27 01:33:23;;;;;;;1.58;0.80;;;10.60;99.90;;;;;;5061322;28;20056;-76
2022/11/27 01:36:01;;;;;;;1.67;0.63;;;10.60;99.90;;;;;;5046338;28;20044;-76
2022/11/27 01:38:28;;;;;;;1.40;0.50;;;10.60;99.90;;;;;;5062873;28;20079;-76
2022/11/27 01:40:58;;;;;;;1.25;0.60;;;10.60;99.90;;;;;;5062958;28;20074;-76
2022/11/27 01:43:50;;;;;;;0.52;0.52;;;10.70;99.90;;;;;;5058604;28;20052;-76
2022/11/27 01:46:42;;;;;;;2.25;0.82;;;10.70;99.90;;;;;;5057514;28;20052;-76
2022/11/27 01:49:08;;;;;;;0.90;0.60;;;10.70;99.90;;;;;;5046405;28;20306;-76
2022/11/27 01:51:48;;;;;;;0.60;0.60;;;10.70;99.90;;;;;;5063747;28;20135;-76
2022/11/27 01:54:15;;;;;;;1.50;0.57;;;10.70;99.90;;;;;;5046033;28;20139;-76
2022/11/27 01:56:43;;;;;;;1.38;0.80;;;10.70;99.90;;;;;;5028968;28;20044;-76
2022/11/27 01:59:09;;;;;;;1.15;0.60;;;10.70;99.90;;;;;;5048333;28;20146;-76
2022/11/27 02:01:36;;;;;;;1.80;0.88;;;10.70;99.90;;;;;;5048988;28;20048;-76
2022/11/27 02:04:03;;;;;;;1.40;0.95;;;10.70;99.90;;;;;;5066625;28;20056;-76
2022/11/27 02:06:30;;;;;;;1.70;0.80;;;10.70;99.90;;;;;;5065581;28;20052;-76
2022/11/27 02:08:57;;;;;;;1.35;0.70;;;10.70;99.90;;;;;;5067006;28;20045;-76
2022/11/27 02:11:29;;;;;;;1.38;0.88;;;10.70;99.90;;;;;;5067229;28;20056;-76
2022/11/27 02:14:05;;;;;;;1.70;0.65;;;10.70;99.90;;;;;;5063311;28;20510;-76
2022/11/27 02:17:13;;;;;;;1.00;0.60;;;10.80;99.90;;;;;;5066023;28;20059;-76
2022/11/27 02:20:05;;;;;;;2.45;0.75;;;10.80;99.90;;;;;;5019187;28;20204;-76
2022/11/27 02:22:35;;;;;;;1.02;0.63;;;10.80;99.90;;;;;;5065385;28;20132;-76
2022/11/27 02:25:02;;;;;;;0.77;0.60;;;10.80;99.90;;;;;;5066954;28;20068;-76
2022/11/27 02:27:55;;;;;;;0.80;0.60;;;10.80;99.90;;;;;;5063493;28;20055;-76
2022/11/27 02:30:25;;;;;;;1.05;0.60;;;10.80;99.90;;;;;;5060126;28;20060;-76
2022/11/27 02:32:57;;;;;;;1.05;0.80;;;10.80;99.90;;;;;;5044383;28;20131;-76
2022/11/27 02:35:38;;;;;;;0.63;0.47;;;10.90;99.90;;;;;;5049837;28;20126;-76
2022/11/27 02:38:25;;;;;;;0.45;0.40;;;10.90;99.90;;;;;;5030310;28;20625;-76
2022/11/27 02:41:05;;;;;;;0.60;0.45;;;10.90;99.90;;;;;;5043477;28;20551;-76
2022/11/27 02:43:34;;;;;;;0.75;0.60;;;10.90;99.90;;;;;;5055129;28;20054;-76
2022/11/27 02:46:01;;;;;;;0.90;0.60;;;10.90;99.90;;;;;;5063191;28;20045;-75
2022/11/27 02:48:31;;;;;;;0.43;0.32;;;10.90;99.90;;;;;;5046629;28;20048;-76
2022/11/27 02:50:57;;;;;;;0.40;0.40;;;10.90;99.90;;;;;;5047051;28;20131;-76
2022/11/27 02:53:36;;;;;;;0.80;0.57;;;11.00;99.90;;;;;;5063308;28;20067;-76
2022/11/27 02:56:07;;;;;;;1.30;0.50;;;11.00;99.90;;;;;;5031249;28;20215;-76
2022/11/27 02:58:34;;;;;;;0.85;0.52;;;11.00;99.90;;;;;;5029181;28;20479;-76
2022/11/27 03:01:01;;;;;;;0.47;0.47;;;11.00;99.90;;;;;;5063541;28;20178;-76
2022/11/27 03:03:30;;;;;;;0.57;0.50;;;11.00;99.90;;;;;;5029745;28;20128;-77
2022/11/27 03:05:59;;;;;;;0.95;0.40;;;11.00;99.90;;;;;;5030261;28;20070;-76
2022/11/27 03:08:53;;;;;;;0.52;0.50;;;11.00;99.90;;;;;;5046809;28;20116;-76
2022/11/27 03:11:20;;;;;;;1.08;0.60;;;11.10;99.90;;;;;;5062285;28;20140;-76
2022/11/27 03:13:50;;;;;;;0.73;0.50;;;11.10;99.90;;;;;;5045827;28;20563;-76
2022/11/27 03:16:23;;;;;;;0.38;0.38;;;11.10;99.90;;;;;;5046319;28;20078;-76
2022/11/27 03:19:15;;;;;;;0.60;0.40;;;11.10;99.90;;;;;;5063744;28;20056;-76
2022/11/27 03:21:47;;;;;;;0.88;0.50;;;11.10;99.90;;;;;;5063635;28;20094;-76
2022/11/27 03:24:14;;;;;;;0.30;0.30;;;11.20;99.90;;;;;;5062706;28;20528;-76
2022/11/27 03:26:42;;;;;;;1.05;0.65;;;11.20;99.90;;;;;;5029282;28;20106;-76
2022/11/27 03:29:20;;;;;;;0.45;0.40;;;11.20;99.90;;;;;;5029574;28;20406;-76
2022/11/27 03:31:47;;;;;;;0.90;0.40;;;11.30;99.90;;;;;;5030635;28;20148;-76
2022/11/27 03:34:15;;;;;;;0.65;0.30;;;11.30;99.90;;;;;;5058339;28;20060;-76
2022/11/27 03:36:41;;;;;;;0.45;0.35;;;11.30;99.90;;;;;;5058658;28;20131;-76
2022/11/27 03:39:08;;;;;;;0.30;0.30;;;11.30;99.90;;;;;;5062457;28;20413;-76
2022/11/27 03:41:44;;;;;;;0.50;0.50;;;11.30;99.90;;;;;;5062108;28;20127;-76
2022/11/27 03:44:25;;;;;;;0.38;0.32;;;11.40;99.90;;;;;;5061525;28;20844;-76
2022/11/27 03:47:02;;;;;;;0.50;0.50;;;11.30;99.90;;;;;;5045394;28;20044;-76
2022/11/27 03:49:31;;;;;;;0.40;0.40;;;11.40;99.90;;;;;;5029510;28;20095;-76
2022/11/27 03:52:05;;;;;;;0.40;0.40;;;11.40;99.90;;;;;;5063360;28;20049;-76
2022/11/27 03:54:51;;;;;;;0.68;0.38;;;11.40;99.90;;;;;;5029049;28;20072;-75
2022/11/27 03:57:24;;;;;;;0.20;0.20;;;11.40;99.90;;;;;;5063425;28;20097;-76
2022/11/27 03:59:50;;;;;;;0.40;0.40;;;11.50;99.90;;;;;;5029715;28;20404;-76
2022/11/27 04:02:30;;;;;;;0.40;0.40;;;11.50;99.90;;;;;;5045187;28;20045;-76
2022/11/27 04:04:57;;;;;;;0.65;0.45;;;11.50;99.90;;;;;;5030192;28;20059;-76
2022/11/27 04:07:24;;;;;;;0.30;0.30;;;11.50;99.90;;;;;;5044054;28;20076;-76
2022/11/27 04:09:50;;;;;;;0.45;0.40;;;11.50;99.90;;;;;;5062643;28;20135;-76
2022/11/27 04:12:17;;;;;;;0.40;0.40;;;11.60;99.90;;;;;;5063123;28;20087;-76
2022/11/27 04:14:44;;;;;;;0.45;0.40;;;11.60;99.90;;;;;;5061910;28;20142;-77
2022/11/27 04:17:11;;;;;;;0.70;0.60;;;11.60;99.90;;;;;;5062965;28;20051;-76
2022/11/27 04:19:37;;;;;;;0.32;0.32;;;11.60;99.90;;;;;;5061576;28;20045;-76
2022/11/27 04:22:04;;;;;;;0.40;0.40;;;11.60;99.90;;;;;;5028718;28;20045;-76
2022/11/27 04:24:31;;;;;;;0.80;0.55;;;11.60;99.90;;;;;;5045523;28;20049;-76
2022/11/27 04:26:58;;;;;;;0.47;0.47;;;11.60;99.90;;;;;;5045163;28;20119;-76
2022/11/27 04:29:24;;;;;;;0.38;0.38;;;11.70;99.90;;;;;;5044893;28;20158;-76
2022/11/27 04:31:51;;;;;;;0.30;0.30;;;11.70;99.90;;;;;;5044823;28;20659;-76
2022/11/27 04:34:19;;;;;;;0.57;0.40;;;11.70;99.90;;;;;;5057904;28;20151;-76
2022/11/27 04:36:45;;;;;;;0.40;0.40;;;11.70;99.90;;;;;;5059463;28;20045;-76
2022/11/27 04:39:12;;;;;;;0.35;0.35;;;11.70;99.90;;;;;;5045599;28;20463;-76
2022/11/27 04:41:39;;;;;;;0.30;0.30;;;11.70;99.90;;;;;;5045508;28;20049;-76
2022/11/27 04:44:05;;;;;;;0.35;0.30;;;11.70;99.90;;;;;;5061454;28;20504;-76
2022/11/27 04:46:32;;;;;;;0.30;0.28;;;11.70;99.90;;;;;;5061588;28;20044;-76
2022/11/27 04:48:59;;;;;;;0.40;0.40;;;11.70;99.90;;;;;;5061556;28;20215;-76
2022/11/27 04:51:26;;;;;;;0.40;0.40;;;11.70;99.90;;;;;;5028861;28;20059;-76
2022/11/27 04:53:53;;;;;;;0.20;0.20;;;11.70;99.90;;;;;;5061327;28;20052;-76
2022/11/27 04:56:19;;;;;;;0.30;0.30;;;11.70;99.90;;;;;;5028471;28;20048;-76
2022/11/27 04:58:46;;;;;;;0.80;0.40;;;11.80;99.90;;;;;;5044550;28;20055;-76
2022/11/27 05:01:13;;;;;;;0.30;0.30;;;11.80;99.90;;;;;;5061754;28;20048;-76
2022/11/27 05:03:39;;;;;;;0.30;0.30;;;11.80;99.90;;;;;;5044380;28;20056;-76
2022/11/27 05:06:06;;;;;;;0.65;0.30;;;11.80;99.90;;;;;;5044816;28;20054;-76
2022/11/27 05:08:33;;;;;;;0.47;0.35;;;11.80;99.90;;;;;;5029094;28;20049;-76
2022/11/27 05:11:06;;;;;;;0.20;0.20;;;11.90;99.90;;;;;;5045393;28;20095;-76
2022/11/27 05:13:33;;;;;;;0.20;0.20;;;11.80;99.90;;;;;;5060804;28;20052;-76
2022/11/27 05:16:00;;;;;;;0.55;0.55;;;11.90;99.90;;;;;;5044678;28;20053;-76
2022/11/27 05:18:27;;;;;;;0.63;0.45;;;11.90;99.90;;;;;;5045066;28;20045;-76
2022/11/27 05:20:57;;;;;;;0.25;0.25;;;11.90;99.90;;;;;;5064704;28;20135;-76
2022/11/27 05:23:24;;;;;;;0.30;0.30;;;11.90;99.90;;;;;;5064870;28;20099;-76
2022/11/27 05:25:51;;;;;;;0.30;0.30;;;11.90;99.90;;;;;;5048322;28;20071;-75
2022/11/27 05:28:18;;;;;;;0.40;0.40;;;12.00;99.90;;;;;;5047885;28;20067;-76
2022/11/27 05:30:52;;;;;;;0.35;0.35;;;12.00;99.90;;;;;;5064675;28;20109;-76
2022/11/27 05:33:18;;;;;;;0.28;0.28;;;12.00;99.90;;;;;;5065810;28;20059;-77
2022/11/27 05:35:45;;;;;;;0.55;0.30;;;12.00;99.90;;;;;;5048672;28;20044;-76
2022/11/27 05:38:12;;;;;;;0.32;0.32;;;12.00;99.90;;;;;;5047704;28;20491;-76
2022/11/27 05:40:38;;;;;;;0.30;0.30;;;12.00;99.90;;;;;;5064864;28;20053;-77
2022/11/27 05:43:05;;;;;;;0.40;0.32;;;12.00;99.90;;;;;;5063543;28;20106;-77
2022/11/27 05:45:32;;;;;;;0.30;0.30;;;12.00;99.90;;;;;;5064970;28;20396;-77
2022/11/27 05:47:59;;;;;;;0.40;0.40;;;12.00;99.90;;;;;;5065265;28;20431;-77
2022/11/27 05:50:26;;;;;;;0.45;0.43;;;12.00;99.90;;;;;;5030666;28;20477;-76
2022/11/27 05:52:52;;;;;;;0.30;0.30;;;12.00;99.90;;;;;;5045203;28;20632;-77
2022/11/27 05:55:19;;;;;;;0.40;0.40;;;12.00;99.90;;;;;;5064693;28;20060;-78
2022/11/27 05:57:46;;;;;;;0.50;0.50;;;12.00;99.90;;;;;;5061681;28;20143;-78
2022/11/27 06:00:13;;;;;;;0.30;0.30;;;12.00;99.90;;;;;;5063513;28;20040;-78
2022/11/27 06:02:40;;;;;;;0.40;0.40;;;12.00;99.90;;;;;;5043314;28;20128;-78
2022/11/27 06:05:07;;;;;;;0.60;0.55;;;12.00;99.90;;;;;;5045006;28;20055;-77
2022/11/27 06:07:34;;;;;;;0.40;0.40;;;12.00;99.90;;;;;;5060133;28;20086;-78
2022/11/27 06:10:01;;;;;;;0.38;0.38;;;12.10;99.90;;;;;;5028738;28;20049;-78
2022/11/27 06:12:29;;;;;;;0.40;0.40;;;12.10;99.90;;;;;;5057181;28;20489;-77
2022/11/27 06:14:56;;;;;;;0.30;0.30;;;12.10;99.90;;;;;;5061645;28;20045;-77
2022/11/27 06:17:23;;;;;;;0.30;0.30;;;12.10;99.90;;;;;;5061754;28;20499;-77
2022/11/27 06:19:50;;;;;;;0.55;0.40;;;12.10;99.90;;;;;;5044967;28;20048;-76
2022/11/27 06:22:17;;;;;;;0.30;0.30;;;12.10;99.90;;;;;;5060376;28;20045;-78
2022/11/27 06:24:43;;;;;;;0.47;0.47;;;12.10;99.90;;;;;;5062445;28;20054;-76
2022/11/27 06:27:10;;;;;;;0.35;0.35;;;12.10;99.90;;;;;;5058917;28;20539;-78
2022/11/27 06:29:37;;;;;;;0.40;0.40;;;12.10;99.90;;;;;;5056644;28;20048;-77
2022/11/27 06:32:04;;;;;;;0.30;0.30;;;12.10;99.90;;;;;;5039926;28;20040;-77
2022/11/27 06:34:31;;;;;;;0.47;0.40;;;12.10;99.90;;;;;;5057114;28;20053;-77
2022/11/27 06:36:57;;;;;;;0.30;0.30;;;12.10;99.90;;;;;;5039324;28;20041;-77
2022/11/27 06:39:24;;;;;;;0.30;0.30;;;12.10;99.90;;;;;;5057293;28;20561;-78
2022/11/27 06:41:51;;;;;;;0.57;0.30;;;12.10;99.90;;;;;;5059034;28;20181;-77
2022/11/27 06:44:18;;;;;;;0.30;0.30;;;12.10;99.90;;;;;;5057865;28;20045;-77
2022/11/27 06:46:44;;;;;;;0.30;0.30;;;12.10;99.90;;;;;;5040363;28;20102;-77
2022/11/27 06:49:11;;;;;;;0.40;0.40;;;12.10;99.90;;;;;;5040559;28;20100;-77
2022/11/27 06:51:38;;;;;;;0.38;0.30;;;12.10;99.90;;;;;;5056599;28;20364;-77
2022/11/27 06:54:05;;;;;;;0.30;0.30;;;12.10;99.90;;;;;;5056499;28;20074;-78
2022/11/27 06:56:31;;;;;;;0.30;0.30;;;12.20;99.90;;;;;;5056375;28;20131;-78
2022/11/27 06:58:59;;;;;;;0.30;0.30;;;12.20;99.90;;;;;;5056747;28;20439;-77
2022/11/27 07:01:27;;;;;;;0.35;0.30;;;12.10;99.90;;;;;;5057152;28;20044;-78
2022/11/27 07:03:54;;;;;;;0.32;0.32;;;12.10;99.90;;;;;;5024103;28;20127;-77
2022/11/27 07:06:22;;;;;;;0.30;0.30;;;12.10;99.90;;;;;;5057376;28;20061;-78
2022/11/27 07:08:49;;;;;;;0.30;0.30;;;12.10;99.90;;;;;;5054580;28;20159;-78
2022/11/27 07:11:17;;;;;;;0.40;0.40;;;12.10;99.90;;;;;;5040869;28;20052;-78
2022/11/27 07:13:45;;;;;;;0.35;0.30;;;12.10;99.90;;;;;;5039610;28;20426;-77
2022/11/27 07:16:12;;;;;;;0.20;0.20;;;12.10;99.90;;;;;;5040447;28;20040;-78
2022/11/27 07:18:40;;;;;;;0.20;0.20;;;12.10;99.90;;;;;;5024108;28;20415;-78
2022/11/27 07:21:07;;;;;;;0.40;0.40;;;12.10;99.90;;;;;;5053794;28;20480;-78
2022/11/27 07:23:34;;;;;;;0.40;0.40;;;12.10;99.90;;;;;;5040474;28;20044;-78
2022/11/27 07:26:11;;;;;;;0.30;0.30;;;12.10;99.90;;;;;;5056454;28;20060;-77
2022/11/27 07:28:38;;;;;;;0.30;0.30;;;12.10;99.90;;;;;;5046823;28;20374;-77
2022/11/27 07:31:05;;;;;;;0.40;0.30;;;12.00;99.90;;;;;;5056755;28;20566;-80
2022/11/27 07:33:31;;;;;;;0.30;0.30;;;12.00;99.90;;;;;;5055669;28;20040;-80
2022/11/27 07:36:12;;;;;;;0.30;0.30;;;12.00;99.90;;;;;;5039138;28;20048;-80
2022/11/27 07:38:39;;;;;;;0.47;0.30;;;12.10;99.90;;;;;;5048889;28;20452;-80
2022/11/27 07:41:06;;;;;;;0.30;0.30;;;12.10;99.90;;;;;;5039701;28;20055;-80
2022/11/27 07:43:33;;;;;;;0.28;0.28;;;12.10;99.90;;;;;;5055971;28;20048;-79
2022/11/27 07:46:07;;;;;;;0.63;0.20;;;12.20;99.90;;;;;;5055774;28;20045;-78
2022/11/27 07:48:34;;;;;;;0.30;0.30;;;12.10;99.90;;;;;;5046520;28;20134;-79
2022/11/27 07:51:00;;;;;;;0.20;0.20;;;12.10;99.90;;;;;;5039659;28;20055;-79
2022/11/27 07:53:27;;;;;;;0.20;0.20;;;12.10;99.90;;;;;;5036243;28;20040;-79
2022/11/27 07:55:58;;;;;;;0.30;0.30;;;12.20;99.90;;;;;;5039529;28;20052;-79
2022/11/27 07:58:24;;;;;;;0.20;0.20;;;12.20;99.90;;;;;;5055458;28;20621;-79
2022/11/27 08:00:51;;;;;;;0.30;0.30;;;12.10;99.90;;;;;;5037446;28;20044;-78
2022/11/27 08:03:18;;;;;;;0.30;0.30;;;12.20;99.90;;;;;;5038271;28;20155;-79
2022/11/27 08:05:45;;;;;;;0.30;0.30;;;12.10;99.90;;;;;;5056043;28;20176;-78
2022/11/27 08:08:12;;;;;;;0.32;0.32;;;12.20;99.90;;;;;;5055940;28;20048;-79
2022/11/27 08:10:39;;;;;;;0.43;0.30;;;12.10;99.90;;;;;;5039648;28;20063;-79
2022/11/27 08:13:05;;;;;;;0.30;0.30;;;12.20;99.90;;;;;;5037786;28;20055;-78
2022/11/27 08:15:32;;;;;;;0.30;0.30;;;12.20;99.90;;;;;;5056423;28;20055;-78
2022/11/27 08:17:59;;;;;;;0.40;0.40;;;12.20;99.90;;;;;;5035912;28;20048;-78
2022/11/27 08:20:26;;;;;;;0.30;0.30;;;12.20;99.90;;;;;;5033767;28;20045;-78
2022/11/27 08:22:53;;;;;;;0.30;0.30;;;12.20;99.90;;;;;;5055403;28;20048;-79
2022/11/27 08:25:26;;;;;;;0.38;0.38;;;12.20;99.90;;;;;;5056100;28;20059;-78
2022/11/27 08:27:53;;;;;;;0.82;0.40;;;12.20;99.90;;;;;;5054123;28;20051;-79
2022/11/27 08:30:22;;;;;;;0.30;0.30;;;12.20;99.90;;;;;;5032415;28;20388;-78
2022/11/27 08:32:49;;;;;;;0.30;0.30;;;12.30;99.90;;;;;;5037050;28;20759;-79
2022/11/27 08:35:16;;;;;;;0.75;0.40;;;12.30;99.90;;;;;;5050249;28;20049;-79
2022/11/27 08:37:43;;;;;;;0.68;0.30;;;12.30;99.90;;;;;;5035632;28;20765;-78
2022/11/27 08:40:10;;;;;;;0.30;0.30;;;12.30;99.90;;;;;;5056024;28;20641;-79
2022/11/27 08:42:37;;;;;;;0.30;0.30;;;12.30;99.90;;;;;;5035364;28;20045;-79
2022/11/27 08:45:04;;;;;;;0.30;0.30;;;12.30;99.90;;;;;;5037231;28;20049;-79
2022/11/27 08:47:31;;;;;;;0.30;0.30;;;12.30;99.90;;;;;;5052845;28;20051;-79
2022/11/27 08:49:58;;;;;;;0.32;0.30;;;12.30;99.90;;;;;;5037546;28;20063;-79
2022/11/27 08:52:25;;;;;;;0.40;0.40;;;12.30;99.90;;;;;;5036230;28;20083;-79
2022/11/27 08:54:52;;;;;;;0.28;0.28;;;12.30;99.90;;;;;;5038574;28;20058;-79
2022/11/27 08:57:23;;;;;;;0.25;0.22;;;12.30;99.90;;;;;;5058800;28;20151;-79
2022/11/27 08:59:50;;;;;;;0.30;0.30;;;12.40;99.90;;;;;;5025589;28;20088;-79
2022/11/27 09:02:17;;;;;;;0.30;0.30;;;12.40;99.90;;;;;;5053783;28;20036;-75
2022/11/27 09:04:44;;;;;;;0.32;0.32;;;12.40;99.90;;;;;;5037248;28;20177;-76
2022/11/27 09:07:13;;;;;;;0.30;0.30;;;12.40;99.90;;;;;;5056711;28;20119;-76
2022/11/27 09:09:40;;;;;;;0.30;0.30;;;12.40;99.90;;;;;;5054571;28;20048;-76
2022/11/27 09:12:06;;;;;;;0.40;0.40;;;12.40;99.90;;;;;;5053055;28;20036;-76
2022/11/27 09:14:33;;;;;;;0.55;0.30;;;12.40;99.90;;;;;;5021262;28;20167;-76
2022/11/27 09:17:00;;;;;;;0.65;0.40;;;12.50;99.90;;;;;;5047532;28;20055;-76
2022/11/27 09:19:27;;;;;;;0.65;0.47;;;12.50;99.90;;;;;;5057700;28;20792;-76
2022/11/27 09:21:53;;;;;;;0.40;0.40;;;12.50;99.90;;;;;;5051031;28;20047;-76
2022/11/27 09:24:20;;;;;;;0.40;0.40;;;12.50;99.90;;;;;;5040273;28;20044;-76
2022/11/27 09:26:47;;;;;;;0.47;0.47;;;12.50;99.90;;;;;;5059295;28;20041;-76
2022/11/27 09:29:14;;;;;;;0.50;0.50;;;12.50;99.90;;;;;;5058498;28;20067;-76
2022/11/27 09:31:40;;;;;;;0.40;0.40;;;12.50;99.90;;;;;;5058886;28;20133;-76
2022/11/27 09:34:07;;;;;;;0.55;0.55;;;12.60;99.90;;;;;;5058177;28;20075;-76
2022/11/27 09:36:34;;;;;;;0.60;0.60;;;12.60;99.90;;;;;;5058870;28;20056;-76
2022/11/27 09:39:02;;;;;;;0.32;0.32;;;12.70;99.90;;;;;;5043066;28;20127;-76
2022/11/27 09:41:47;;;;;;;0.30;0.30;;;12.70;99.90;;;;;;5056736;28;20131;-76
2022/11/27 09:44:28;;;;;;;0.30;0.30;;;12.80;99.90;;;;;;5056700;28;20059;-75
2022/11/27 09:46:55;;;;;;;0.85;0.30;;;12.80;99.90;;;;;;5059900;28;20136;-75
2022/11/27 09:49:31;;;;;;;0.80;0.50;;;12.80;99.90;;;;;;5059442;28;20044;-76
2022/11/27 09:52:05;;;;;;;0.38;0.38;;;12.80;99.90;;;;;;5037591;28;20051;-76
2022/11/27 09:54:53;;;;;;;0.50;0.50;;;12.80;99.90;;;;;;5056717;28;20048;-75
2022/11/27 09:57:27;;;;;;;0.98;0.50;;;12.80;99.90;;;;;;5055660;28;20098;-77
2022/11/27 09:59:54;;;;;;;0.93;0.63;;;12.90;99.90;;;;;;5048917;28;20064;-75
2022/11/27 10:02:28;;;;;;;1.30;0.75;;;12.90;99.90;;;;;;5041044;28;20060;-75
2022/11/27 10:04:55;;;;;;;0.80;0.70;;;12.90;99.90;;;;;;5046489;28;20114;-75
2022/11/27 10:07:52;;;;;;;0.90;0.60;;;13.00;99.90;;;;;;5042108;28;20050;-75
2022/11/27 10:10:45;;;;;;;0.82;0.50;;;13.00;99.90;;;;;;5065500;28;20048;-76
2022/11/27 10:13:38;;;;;;;0.50;0.50;;;13.10;99.90;;;;;;5053196;28;20131;-75
2022/11/27 10:16:32;;;;;;;0.50;0.40;;;13.10;99.90;;;;;;5049319;28;20072;-75
2022/11/27 10:19:02;;;;;;;0.47;0.40;;;13.10;99.90;;;;;;5033521;28;20163;-75
2022/11/27 10:21:53;;;;;;;0.50;0.50;;;13.20;99.90;;;;;;5031196;28;20110;-75
2022/11/27 10:24:27;;;;;;;0.40;0.40;;;13.20;99.90;;;;;;5054511;28;20258;-75
2022/11/27 10:26:55;;;;;;;0.60;0.60;;;13.20;99.90;;;;;;5052323;28;20041;-75
2022/11/27 10:29:35;;;;;;;0.40;0.40;;;13.20;99.90;;;;;;5040816;28;20052;-75
2022/11/27 10:32:18;;;;;;;0.40;0.40;;;13.30;99.90;;;;;;5064946;28;20124;-75
2022/11/27 10:35:16;;;;;;;0.47;0.47;;;13.30;99.90;;;;;;5066357;28;21112;-74
2022/11/27 10:38:09;;;;;;;0.38;0.38;;;13.40;99.90;;;;;;5017086;28;20041;-75
2022/11/27 10:40:37;;;;;;;0.52;0.40;;;13.40;99.90;;;;;;5056720;28;20059;-75
2022/11/27 10:43:21;;;;;;;0.32;0.32;;;13.50;99.90;;;;;;5056874;28;20117;-74
2022/11/27 10:46:00;;;;;;;0.30;0.30;;;13.50;99.90;;;;;;5040250;28;20234;-75
2022/11/27 10:48:28;;;;;;;0.35;0.35;;;13.60;99.90;;;;;;5057660;28;20049;-74
2022/11/27 10:50:55;;;;;;;0.30;0.30;;;13.70;99.90;;;;;;5050746;28;20132;-74
2022/11/27 10:53:28;;;;;;;0.30;0.30;;;13.70;99.90;;;;;;5058529;28;20139;-75
2022/11/27 10:56:11;;;;;;;0.60;0.60;;;13.80;99.90;;;;;;5056646;28;20053;-75
2022/11/27 10:58:44;;;;;;;0.50;0.50;;;13.80;99.90;;;;;;5052620;28;20141;-75
2022/11/27 11:01:15;;;;;;;;;;;13.80;99.90;;;;;;5057677;28;20131;-75
2022/11/27 11:03:41;;;;;;;0.40;0.40;;;13.80;99.90;;;;;;5055636;28;19924;-75
2022/11/27 11:06:22;;;;;;;0.50;0.50;;;13.90;99.90;;;;;;5056345;28;20229;-75
2022/11/27 11:09:05;;;;;;;0.60;0.60;;;13.90;99.90;;;;;;5046775;28;20186;-75
2022/11/27 11:11:31;;;;;;;1.23;0.75;;;13.90;99.90;;;;;;5038982;28;20528;-75
2022/11/27 11:13:58;;;;;;;0.55;0.55;;;14.00;99.90;;;;;;5056870;28;20044;-75
2022/11/27 11:16:29;;;;;;;0.68;0.60;;;14.00;99.90;;;;;;5055658;28;20169;-75
2022/11/27 11:19:01;;;;;;;0.50;0.45;;;14.00;99.90;;;;;;5054987;28;20055;-74
2022/11/27 11:21:33;;;;;;;0.40;0.40;;;14.10;99.90;;;;;;5037525;28;20791;-75
2022/11/27 11:24:02;;;;;;;0.60;0.50;;;14.10;99.90;;;;;;5054282;28;20040;-75
2022/11/27 11:26:34;;;;;;;0.43;0.43;;;14.10;99.90;;;;;;5057120;28;20122;-75
2022/11/27 11:29:03;;;;;;;0.30;0.30;;;14.10;99.90;;;;;;5044198;28;20041;-75
2022/11/27 11:31:35;;;;;;;0.40;0.40;;;14.10;99.90;;;;;;5052473;28;20471;-75
2022/11/27 11:34:20;;;;;;;0.65;0.30;;;14.10;99.90;;;;;;5054777;28;20097;-75
2022/11/27 11:37:06;;;;;;;0.40;0.40;;;14.10;99.90;;;;;;5040669;28;20070;-75
2022/11/27 11:39:44;;;;;;;0.43;0.40;;;14.00;99.90;;;;;;5044140;28;20055;-75
2022/11/27 11:42:26;;;;;;;1.15;0.50;;;14.00;99.90;;;;;;5040116;28;20080;-75
2022/11/27 11:45:06;;;;;;;0.30;0.30;;;14.00;99.90;;;;;;5034450;28;20040;-76
2022/11/27 11:47:33;;;;;;;0.75;0.30;;;14.00;99.90;;;;;;5039384;28;20048;-75
2022/11/27 11:50:00;;;;;;;0.50;0.50;;;14.00;99.90;;;;;;5058725;28;20049;-74
2022/11/27 11:52:30;;;;;;;0.30;0.30;;;13.90;99.90;;;;;;5041070;28;20045;-74
2022/11/27 11:54:58;;;;;;;0.40;0.40;;;13.90;99.90;;;;;;5062053;28;20053;-75
2022/11/27 11:57:24;;;;;;;0.30;0.30;;;14.00;99.90;;;;;;5040309;28;20052;-75
2022/11/27 12:00:06;;;;;;;0.40;0.40;;;14.00;99.90;;;;;;5053185;28;20060;-74
2022/11/27 12:02:37;;;;;;;0.50;0.40;;;14.00;99.90;;;;;;5035925;28;20048;-74
2022/11/27 12:05:17;;;;;;;0.28;0.28;;;14.10;99.90;;;;;;5058107;28;20060;-74
2022/11/27 12:08:07;;;;;;;0.30;0.30;;;14.10;99.90;;;;;;5055755;28;20578;-90
2022/11/27 12:10:57;;;;;;;0.40;0.40;;;14.10;99.90;;;;;;5049636;28;20058;-79
2022/11/27 12:14:00;;;;;;;0.30;0.30;;;14.10;99.90;;;;;;5046440;28;20547;-79
2022/11/27 12:16:40;;;;;;;0.47;0.47;;;14.10;99.90;;;;;;5049892;28;20032;-78
2022/11/27 12:19:16;;;;;;;1.02;0.50;;;14.10;99.90;;;;;;5041794;28;20047;-78
2022/11/27 12:22:01;;;;;;;0.77;0.60;;;14.00;99.90;;;;;;5060702;28;20126;-78
2022/11/27 12:24:46;;;;;;;0.70;0.63;;;14.00;99.90;;;;;;5057622;28;20424;-78
2022/11/27 12:27:38;;;;;;;0.45;0.40;;;14.10;99.90;;;;;;5056289;28;20044;-78
2022/11/27 12:30:18;;;;;;;0.40;0.40;;;14.10;99.90;;;;;;5063817;28;20425;-78
2022/11/27 12:33:00;;;;;;;0.52;0.30;;;14.10;99.90;;;;;;5056072;28;20139;-79
2022/11/27 12:35:47;;;;;;;0.47;0.47;;;14.10;99.90;;;;;;5053357;28;20048;-79
2022/11/27 12:38:38;;;;;;;0.40;0.40;;;14.20;99.90;;;;;;5039149;28;20056;-79
2022/11/27 12:41:10;;;;;;;0.47;0.45;;;14.20;99.90;;;;;;5068566;28;20048;-77
2022/11/27 12:43:45;;;;;;;0.43;0.40;;;14.20;99.90;;;;;;5050819;28;20071;-76
2022/11/27 12:46:18;;;;;;;0.50;0.50;;;14.20;99.90;;;;;;5055210;28;20052;-77
2022/11/27 12:48:47;;;;;;;1.13;0.70;;;14.30;99.90;;;;;;5041450;28;20094;-76
2022/11/27 12:51:21;;;;;;;0.88;0.40;;;14.30;99.90;;;;;;5056082;28;20131;-77
2022/11/27 12:53:54;;;;;;;0.40;0.40;;;14.30;99.90;;;;;;5055922;28;20070;-77
2022/11/27 12:56:28;;;;;;;;;;;14.30;99.90;;;;;;5041105;28;20053;-77
2022/11/27 12:58:56;;;;;;;0.40;0.40;;;14.40;99.90;;;;;;5037256;28;19964;-79
2022/11/27 13:01:28;;;;;;;0.90;0.50;;;14.40;99.90;;;;;;5047589;28;20507;-79
2022/11/27 13:04:18;;;;;;;0.52;0.50;;;14.40;99.90;;;;;;5040589;28;20051;-80
2022/11/27 13:07:03;;;;;;;0.57;0.40;;;14.30;99.90;;;;;;5062771;28;20053;-80
2022/11/27 13:09:41;;;;;;;0.40;0.40;;;14.30;99.90;;;;;;5047613;28;20490;-79